createdAt,value
2023-02-08T00:02:51.610Z,15.15
2023-02-08T00:07:47.921Z,21.15
2023-02-08T00:12:44.322Z,19.02
2023-02-08T00:17:40.697Z,18.55
2023-02-08T00:22:38.744Z,20.40
2023-02-08T00:27:35.407Z,16.70
2023-02-08T00:32:31.789Z,20.73
2023-02-08T00:37:28.278Z,19.25
2023-02-08T00:42:25.180Z,17.00
2023-02-08T00:47:21.670Z,22.90
2023-02-08T00:52:18.583Z,20.42
2023-02-08T00:57:15.066Z,52.55
2023-02-08T01:02:11.664Z,25.45
2023-02-08T01:07:08.211Z,23.45
2023-02-08T01:12:04.617Z,24.77
2023-02-08T01:17:00.980Z,21.60
2023-02-08T01:21:57.301Z,21.67
2023-02-08T01:26:53.637Z,20.02
2023-02-08T01:31:50.085Z,18.23
2023-02-08T01:36:46.463Z,16.80
2023-02-08T01:41:44.662Z,19.10
2023-02-08T01:46:43.492Z,17.90
2023-02-08T01:56:45.607Z,19.58
2023-02-08T02:01:44.817Z,18.30
2023-02-08T02:06:46.474Z,19.70
2023-02-08T02:11:43.516Z,17.42
2023-02-08T02:16:39.909Z,16.40
2023-02-08T02:21:57.553Z,15.93
2023-02-08T02:27:38.734Z,19.35
2023-02-08T02:32:49.843Z,15.63
2023-02-08T02:38:12.763Z,16.23
2023-02-08T02:43:40.053Z,18.08
2023-02-08T02:48:47.408Z,15.43
2023-02-08T02:53:59.225Z,19.75
2023-02-08T02:59:01.190Z,9.90
2023-02-08T03:03:58.761Z,10.02
2023-02-08T03:09:21.538Z,11.27
2023-02-08T03:14:29.059Z,10.73
2023-02-08T03:19:37.161Z,7.93
2023-02-08T03:24:46.271Z,10.27
2023-02-08T03:30:05.577Z,13.07
2023-02-08T03:35:07.993Z,10.32
2023-02-08T03:40:47.945Z,10.35
2023-02-08T03:45:52.521Z,8.70
2023-02-08T03:50:53.362Z,11.88
2023-02-08T03:55:56.351Z,13.00
2023-02-08T04:01:00.392Z,11.52
2023-02-08T04:05:56.856Z,11.90
2023-02-08T04:10:53.419Z,11.45
2023-02-08T04:15:49.799Z,9.80
2023-02-08T04:20:46.118Z,10.32
2023-02-08T04:25:43.463Z,9.88
2023-02-08T04:30:40.247Z,8.95
2023-02-08T04:35:36.795Z,10.30
2023-02-08T04:40:33.286Z,9.68
2023-02-08T04:45:32.007Z,12.60
2023-02-08T04:50:28.437Z,9.75
2023-02-08T04:55:24.852Z,13.48
2023-02-08T05:00:21.256Z,12.38
2023-02-08T05:05:17.766Z,12.18
2023-02-08T05:10:14.533Z,18.80
2023-02-08T05:15:11.045Z,33.80
2023-02-08T05:20:08.127Z,27.88
2023-02-08T05:25:05.056Z,15.45
2023-02-08T05:30:01.525Z,13.45
2023-02-08T05:34:57.835Z,12.68
2023-02-08T05:39:54.160Z,15.95
2023-02-08T05:44:50.446Z,16.05
2023-02-08T05:49:46.805Z,19.40
2023-02-08T05:54:43.113Z,14.35
2023-02-08T05:59:39.449Z,19.08
2023-02-08T06:04:38.679Z,16.67
2023-02-08T06:09:35.337Z,17.67
2023-02-08T06:14:31.626Z,11.43
2023-02-08T06:19:27.970Z,14.35
2023-02-08T06:24:25.280Z,11.63
2023-02-08T06:29:21.759Z,13.23
2023-02-08T06:34:18.079Z,12.40
2023-02-08T06:39:14.484Z,13.27
2023-02-08T06:44:10.866Z,12.85
2023-02-08T06:49:07.168Z,11.43
2023-02-08T06:54:03.523Z,11.27
2023-02-08T06:58:59.845Z,17.05
2023-02-08T07:03:56.173Z,15.52
2023-02-08T07:08:52.723Z,14.95
2023-02-08T07:13:50.696Z,22.98
2023-02-08T07:18:47.579Z,15.13
2023-02-08T07:23:43.958Z,22.50
2023-02-08T07:28:40.905Z,21.92
2023-02-08T07:33:37.638Z,21.63
2023-02-08T07:38:34.377Z,18.95
2023-02-08T07:43:31.165Z,21.60
2023-02-08T07:48:27.592Z,23.15
2023-02-08T07:53:23.926Z,19.60
2023-02-08T07:58:20.239Z,21.52
2023-02-08T08:03:16.584Z,15.82
2023-02-08T08:08:13.770Z,24.63
2023-02-08T08:13:10.349Z,19.30
2023-02-08T08:18:06.939Z,15.18
2023-02-08T08:23:03.961Z,21.30
2023-02-08T08:28:01.370Z,18.77
2023-02-08T08:32:57.733Z,17.00
2023-02-08T08:37:54.094Z,15.50
2023-02-08T08:42:50.399Z,14.52
2023-02-08T08:47:46.764Z,16.92
2023-02-08T08:52:43.089Z,16.48
2023-02-08T08:57:39.647Z,17.42
2023-02-08T09:02:35.977Z,10.98
2023-02-08T09:07:33.438Z,6.25
2023-02-08T09:12:29.845Z,5.30
2023-02-08T09:17:26.156Z,7.45
2023-02-08T09:22:22.575Z,4.13
2023-02-08T09:27:19.034Z,7.20
2023-02-08T09:32:15.410Z,5.43
2023-02-08T09:37:11.775Z,6.07
2023-02-08T09:42:26.770Z,4.32
2023-02-08T09:47:37.108Z,16.40
2023-02-08T09:52:44.575Z,6.10
2023-02-08T09:57:44.013Z,4.68
2023-02-08T10:02:43.119Z,5.63
2023-02-08T10:07:40.916Z,4.60
2023-02-08T10:12:58.857Z,4.55
2023-02-08T10:18:18.920Z,2.83
2023-02-08T10:23:49.175Z,5.72
2023-02-08T10:29:07.504Z,8.70
2023-02-08T10:34:35.711Z,3.72
2023-02-08T10:39:35.808Z,4.35
2023-02-08T10:44:54.186Z,3.67
2023-02-08T10:49:59.433Z,2.67
2023-02-08T10:54:59.056Z,3.17
2023-02-08T11:00:05.151Z,2.58
2023-02-08T11:05:18.144Z,2.83
2023-02-08T11:10:25.649Z,2.10
2023-02-08T11:15:26.806Z,2.80
2023-02-08T11:20:31.994Z,2.92
2023-02-08T11:25:42.163Z,5.20
2023-02-08T11:30:38.726Z,1.73
2023-02-08T11:35:36.112Z,3.47
2023-02-08T11:40:37.166Z,4.15
2023-02-08T11:45:37.562Z,2.17
2023-02-08T11:50:36.863Z,2.65
2023-02-08T11:55:34.632Z,2.78
2023-02-08T12:00:35.200Z,3.27
2023-02-08T12:06:01.207Z,2.33
2023-02-08T12:11:03.585Z,2.55
2023-02-08T12:16:36.704Z,2.80
2023-02-08T12:21:45.288Z,1.83
2023-02-08T12:32:27.696Z,1.98
2023-02-08T12:38:11.884Z,2.42
2023-02-08T12:43:38.003Z,3.22
2023-02-08T12:48:43.621Z,2.30
2023-02-08T12:53:45.834Z,1.83
2023-02-08T12:58:47.999Z,1.95
2023-02-08T13:04:03.281Z,2.95
2023-02-08T13:09:18.788Z,1.00
2023-02-08T13:14:50.645Z,2.13
2023-02-08T13:20:07.218Z,3.38
2023-02-08T13:25:08.963Z,1.25
2023-02-08T13:30:06.549Z,6.28
2023-02-08T13:35:15.101Z,2.83
2023-02-08T13:40:28.505Z,1.80
2023-02-08T13:45:50.201Z,1.42
2023-02-08T13:50:49.362Z,1.42
2023-02-08T13:56:00.221Z,1.80
2023-02-08T14:00:56.679Z,1.55
2023-02-08T14:05:59.976Z,2.30
2023-02-08T14:11:18.287Z,2.97
2023-02-08T14:16:35.945Z,3.85
2023-02-08T14:21:44.525Z,2.80
2023-02-08T14:31:41.040Z,1.70
2023-02-08T14:36:37.474Z,1.30
2023-02-08T14:41:57.232Z,6.35
2023-02-08T14:46:54.998Z,1.75
2023-02-08T14:52:02.788Z,1.93
2023-02-08T14:57:06.521Z,2.03
2023-02-08T15:02:12.282Z,1.92
2023-02-08T15:07:38.474Z,3.53
2023-02-08T15:12:38.745Z,3.70
2023-02-08T15:17:47.537Z,2.80
2023-02-08T15:22:43.967Z,2.08
2023-02-08T15:27:47.586Z,1.45
2023-02-08T15:32:43.999Z,2.97
2023-02-08T15:37:43.958Z,2.60
2023-02-08T15:42:43.738Z,2.05
2023-02-08T15:47:42.066Z,2.53
2023-02-08T15:52:38.648Z,2.22
2023-02-08T15:57:44.698Z,2.72
2023-02-08T16:02:42.603Z,2.92
2023-02-08T16:07:48.076Z,3.07
2023-02-08T16:12:51.961Z,3.38
2023-02-08T16:17:48.810Z,5.55
2023-02-08T16:22:58.898Z,2.88
2023-02-08T16:27:55.410Z,4.95
2023-02-08T16:32:52.034Z,5.72
2023-02-08T16:37:54.654Z,4.95
2023-02-08T16:42:51.182Z,5.70
2023-02-08T16:47:53.566Z,5.03
2023-02-08T16:52:54.276Z,9.60
2023-02-08T16:57:53.628Z,8.85
2023-02-08T17:02:51.053Z,7.45
2023-02-08T17:07:47.992Z,7.30
2023-02-08T17:12:44.369Z,7.40
2023-02-08T17:17:40.745Z,6.32
2023-02-08T17:22:37.092Z,7.82
2023-02-08T17:27:33.773Z,7.47
2023-02-08T17:32:30.117Z,7.82
2023-02-08T17:37:26.449Z,8.02
2023-02-08T17:42:22.777Z,10.40
2023-02-08T17:47:19.120Z,11.52
2023-02-08T17:52:15.536Z,12.35
2023-02-08T17:57:12.011Z,7.72
2023-02-08T18:02:09.180Z,7.07
2023-02-08T18:07:05.569Z,14.18
2023-02-08T18:12:02.139Z,8.18
2023-02-08T18:16:58.586Z,9.80
2023-02-08T18:21:54.934Z,10.32
2023-02-08T18:26:51.259Z,8.25
2023-02-08T18:31:47.709Z,9.55
2023-02-08T18:36:45.070Z,10.85
2023-02-08T18:41:43.158Z,8.38
2023-02-08T18:46:40.373Z,6.83
2023-02-08T18:51:36.743Z,7.85
2023-02-08T18:56:35.185Z,6.28
2023-02-08T19:01:31.556Z,8.50
2023-02-08T19:06:29.106Z,13.00
2023-02-08T19:11:28.843Z,6.03
2023-02-08T19:16:25.798Z,8.63
2023-02-08T19:21:22.971Z,6.95
2023-02-08T19:26:23.604Z,7.20
2023-02-08T19:31:22.302Z,6.38
2023-02-08T19:36:21.221Z,7.15
2023-02-08T19:41:23.463Z,6.28
2023-02-08T19:46:22.352Z,7.40
2023-02-08T19:56:17.729Z,10.30
2023-02-08T20:01:17.455Z,6.20
2023-02-08T20:06:19.508Z,8.38
2023-02-08T20:11:20.031Z,8.20
2023-02-08T20:16:17.582Z,11.88
2023-02-08T20:21:14.192Z,8.18
2023-02-08T20:26:22.420Z,9.35
2023-02-08T20:31:31.260Z,8.20
2023-02-08T20:41:27.943Z,8.20
2023-02-08T20:46:27.150Z,7.22
2023-02-08T20:51:25.937Z,7.57
2023-02-08T20:56:26.147Z,8.02
2023-02-08T21:01:28.136Z,9.05
2023-02-08T21:06:32.833Z,6.90
2023-02-08T21:11:31.202Z,6.22
2023-02-08T21:16:28.027Z,6.47
2023-02-08T21:21:25.264Z,10.10
2023-02-08T21:26:21.579Z,8.50
2023-02-08T21:31:19.950Z,8.18
2023-02-08T21:36:19.790Z,10.27
2023-02-08T21:41:23.624Z,11.20
2023-02-08T21:46:20.699Z,9.35
2023-02-08T21:51:36.235Z,12.05
2023-02-08T21:56:33.307Z,9.00
2023-02-08T22:01:30.331Z,8.68
2023-02-08T22:06:26.669Z,7.75
2023-02-08T22:11:23.061Z,7.57
2023-02-08T22:16:19.584Z,7.85
2023-02-08T22:21:15.942Z,9.80
2023-02-08T22:26:12.260Z,8.05
2023-02-08T22:31:08.737Z,12.52
2023-02-08T22:36:09.666Z,6.45
2023-02-08T22:41:10.668Z,6.75
2023-02-08T22:46:07.505Z,6.90
2023-02-08T22:51:09.369Z,6.13
2023-02-08T22:56:06.274Z,8.25
2023-02-08T23:01:02.590Z,6.68
2023-02-08T23:05:59.193Z,7.43
2023-02-08T23:11:00.237Z,7.82
2023-02-08T23:15:57.214Z,8.45
2023-02-08T23:20:54.726Z,13.40
2023-02-08T23:25:51.050Z,8.70
2023-02-08T23:30:47.585Z,7.45
2023-02-08T23:35:44.064Z,11.27
2023-02-08T23:40:41.342Z,10.95
2023-02-08T23:45:37.719Z,8.80
2023-02-08T23:50:34.189Z,9.25
2023-02-08T23:55:31.028Z,10.75
